Time;durP1;ratioP1;P1;durP2;ratioP2;P2;SDS_P1;SDS_P2;PMS_P1;PMS_P2;Temp;Humidity;BMP_temperature;BMP_pressure;BME280_temperature;BME280_humidity;BME280_pressure;Samples;Min_cycle;Max_cycle;Signal;HPM_P1;HPM_P2
2021/05/17 00:01:44;;;;;;;7.47;2.70;;;;;;;18.53;51.75;99299.90;1750758;80;21894;-60
2021/05/17 00:04:13;;;;;;;6.30;2.67;;;;;;;18.52;51.93;99299.62;1728707;83;21224;-60
2021/05/17 00:06:43;;;;;;;4.60;2.50;;;;;;;18.51;52.18;99296.56;1728536;82;21208;-59
2021/05/17 00:09:13;;;;;;;9.28;2.60;;;;;;;18.48;52.34;99287.41;1728621;83;21280;-60
2021/05/17 00:11:42;;;;;;;5.58;2.62;;;;;;;18.46;52.39;99283.25;1728674;83;21149;-60
2021/05/17 00:14:10;;;;;;;6.55;2.85;;;;;;;18.41;52.40;99279.92;1728564;81;21150;-60
2021/05/17 00:16:39;;;;;;;7.35;2.80;;;;;;;18.39;52.46;99273.81;1728717;83;21422;-60
2021/05/17 00:19:09;;;;;;;5.72;2.67;;;;;;;18.40;52.52;99271.32;1728581;81;21142;-61
2021/05/17 00:21:36;;;;;;;5.83;2.98;;;;;;;18.41;52.54;99269.37;1728755;83;21300;-60
2021/05/17 00:24:06;;;;;;;6.62;3.17;;;;;;;18.39;52.69;99262.72;1728657;83;21184;-61
2021/05/17 00:26:33;;;;;;;8.13;2.90;;;;;;;18.39;52.57;99264.11;1728844;81;21149;-61
2021/05/17 00:29:01;;;;;;;6.40;3.12;;;;;;;18.37;52.27;99267.72;1728626;81;21336;-60
2021/05/17 00:31:29;;;;;;;5.85;3.00;;;;;;;18.38;51.87;99274.38;1728694;81;21154;-60
2021/05/17 00:33:57;;;;;;;5.35;2.87;;;;;;;18.42;52.42;99272.43;1728706;83;21146;-61
2021/05/17 00:36:25;;;;;;;5.17;2.92;;;;;;;18.40;52.79;99272.70;1728703;81;21391;-61
2021/05/17 00:38:53;;;;;;;8.28;3.20;;;;;;;18.38;52.88;99263.83;1728666;83;21401;-60
2021/05/17 00:41:21;;;;;;;4.30;2.77;;;;;;;18.38;52.98;99260.50;1728780;83;21265;-61
2021/05/17 00:43:48;;;;;;;9.50;3.10;;;;;;;18.36;53.06;99252.19;1728848;83;21466;-61
2021/05/17 00:46:16;;;;;;;4.15;2.98;;;;;;;18.36;52.73;99256.34;1707941;83;21303;-61
2021/05/17 00:48:47;;;;;;;5.40;2.98;;;;;;;18.36;52.94;99253.02;1728594;82;21174;-61
2021/05/17 00:51:17;;;;;;;5.25;3.10;;;;;;;18.37;52.97;99252.46;1728766;82;21390;-61
2021/05/17 00:53:45;;;;;;;7.05;2.83;;;;;;;18.37;53.26;99261.61;1728709;81;21369;-60
2021/05/17 00:56:14;;;;;;;6.45;2.90;;;;;;;18.36;53.50;99250.80;1728668;82;21146;-59
2021/05/17 00:58:45;;;;;;;8.63;2.83;;;;;;;18.32;53.64;99248.30;1728639;83;21162;-59
2021/05/17 01:01:12;;;;;;;4.75;2.83;;;;;;;18.26;53.72;99252.18;1728896;81;21813;-60
2021/05/17 01:03:40;;;;;;;5.42;2.77;;;;;;;18.22;53.71;99244.13;1728633;82;21447;-61
2021/05/17 01:06:17;;;;;;;6.72;2.70;;;;;;;18.22;53.94;99241.36;1728220;82;21268;-61
2021/05/17 01:09:01;;;;;;;6.03;2.75;;;;;;;18.22;53.96;99246.91;1728666;81;21193;-60
2021/05/17 01:11:29;;;;;;;8.05;3.00;;;;;;;18.21;54.34;99233.59;1707703;83;21206;-61
2021/05/17 01:14:00;;;;;;;4.10;2.83;;;;;;;18.19;54.78;99239.11;1728632;83;21387;-61
2021/05/17 01:16:28;;;;;;;4.87;2.70;;;;;;;18.19;54.77;99240.50;1728694;83;21323;-61
2021/05/17 01:18:56;;;;;;;5.28;2.42;;;;;;;18.20;54.56;99243.55;1728624;83;21158;-61
2021/05/17 01:21:27;;;;;;;4.15;2.52;;;;;;;18.20;54.47;99244.94;1728669;82;21170;-61
2021/05/17 01:23:57;;;;;;;9.85;2.30;;;;;;;18.19;54.42;99246.87;1728819;81;21158;-60
2021/05/17 01:26:29;;;;;;;8.10;2.70;;;;;;;18.20;54.62;99251.87;1728625;83;21154;-60
2021/05/17 01:29:01;;;;;;;5.80;2.75;;;;;;;18.19;54.65;99246.04;1728665;82;21863;-61
2021/05/17 01:31:29;;;;;;;5.35;2.80;;;;;;;18.18;54.75;99252.14;1728605;83;21685;-61
2021/05/17 01:33:59;;;;;;;4.95;2.42;;;;;;;18.15;54.74;99254.63;1728858;81;21134;-60
2021/05/17 01:36:27;;;;;;;5.15;2.90;;;;;;;18.11;54.82;99249.36;1728678;81;21924;-61
2021/05/17 01:38:56;;;;;;;7.87;2.85;;;;;;;18.07;54.60;99250.47;1728891;81;21272;-61
2021/05/17 01:41:25;;;;;;;7.58;3.00;;;;;;;18.08;54.80;99245.20;1728597;83;21174;-60
2021/05/17 01:43:55;;;;;;;6.62;3.47;;;;;;;18.08;54.94;99244.36;1728635;83;21388;-61
2021/05/17 01:46:28;;;;;;;5.22;3.37;;;;;;;18.06;54.79;99238.55;1728737;83;21536;-60
2021/05/17 01:48:59;;;;;;;5.72;3.20;;;;;;;18.07;54.65;99233.83;1728462;81;21837;-60
2021/05/17 01:51:27;;;;;;;10.25;3.33;;;;;;;18.05;55.14;99239.66;1707886;83;21181;-60
2021/05/17 01:53:58;;;;;;;6.45;3.02;;;;;;;18.04;55.54;99248.24;1728736;83;21189;-59
2021/05/17 01:56:26;;;;;;;5.85;2.72;;;;;;;18.02;55.97;99259.60;1728634;82;21153;-61
2021/05/17 01:58:55;;;;;;;7.08;3.42;;;;;;;18.03;56.72;99279.84;1728319;82;21142;-61
2021/05/17 02:01:25;;;;;;;11.05;3.37;;;;;;;18.02;57.74;99283.16;1728557;81;21173;-60
2021/05/17 02:03:52;;;;;;;6.35;2.90;;;;;;;18.01;57.48;99278.73;1714831;82;21153;-60
2021/05/17 02:06:20;;;;;;;5.90;3.40;;;;;;;18.02;57.60;99280.39;1744843;82;21214;-61
2021/05/17 02:08:50;;;;;;;9.78;3.55;;;;;;;18.03;57.61;99299.23;1744816;81;21889;-61
2021/05/17 02:11:24;;;;;;;7.67;3.95;;;;;;;18.04;57.99;99292.59;1744941;81;21147;-61
2021/05/17 02:13:54;;;;;;;9.28;3.47;;;;;;;18.02;58.17;99279.01;1743685;81;21164;-60
2021/05/17 02:16:22;;;;;;;8.08;3.60;;;;;;;17.98;59.57;99257.09;1744841;82;21422;-61
2021/05/17 02:18:50;;;;;;;10.60;4.65;;;;;;;17.88;60.20;99254.31;1745018;82;21279;-61
2021/05/17 02:21:20;;;;;;;8.05;4.08;;;;;;;17.80;60.23;99245.70;1744948;80;21280;-61
2021/05/17 02:23:48;;;;;;;8.68;3.90;;;;;;;17.73;60.50;99234.88;1744916;80;21165;-60
2021/05/17 02:26:17;;;;;;;6.05;3.62;;;;;;;17.65;61.02;99229.84;1744882;82;21303;-60
2021/05/17 02:28:46;;;;;;;7.92;3.52;;;;;;;17.58;61.74;99227.88;1744823;82;22007;-60
2021/05/17 02:31:15;;;;;;;7.28;3.50;;;;;;;17.49;61.33;99216.45;1717543;82;21145;-60
2021/05/17 02:33:44;;;;;;;6.65;3.52;;;;;;;17.44;61.79;99201.21;1745017;82;21156;-59
2021/05/17 02:36:13;;;;;;;6.58;3.30;;;;;;;17.40;61.89;99202.31;1744938;82;21375;-59
2021/05/17 02:38:43;;;;;;;6.97;3.62;;;;;;;17.40;61.95;99206.46;1744894;82;21133;-60
2021/05/17 02:41:10;;;;;;;6.08;3.65;;;;;;;17.39;62.10;99213.66;1744959;82;21367;-59
2021/05/17 02:43:38;;;;;;;5.87;3.70;;;;;;;17.40;62.46;99209.78;1717184;82;21240;-59
2021/05/17 02:46:11;;;;;;;9.20;4.33;;;;;;;17.40;64.04;99218.09;1694714;82;21263;-60
2021/05/17 02:48:41;;;;;;;6.95;3.60;;;;;;;17.40;65.09;99225.84;1744845;82;21988;-60
2021/05/17 02:51:12;;;;;;;6.92;3.85;;;;;;;17.38;65.96;99228.05;1744882;80;21281;-60
2021/05/17 02:53:51;;;;;;;7.58;3.77;;;;;;;17.35;66.39;99229.14;1744865;82;21540;-59
2021/05/17 02:56:58;;;;;;;6.83;3.92;;;;;;;17.34;67.08;99224.16;1742180;82;21157;-59
2021/05/17 03:00:07;;;;;;;8.70;3.72;;;;;;;17.33;67.27;99211.42;1744926;82;21199;-60
2021/05/17 03:03:00;;;;;;;7.72;3.55;;;;;;;17.27;68.05;99203.36;1717041;82;21216;-60
2021/05/17 03:05:38;;;;;;;7.50;3.40;;;;;;;17.18;68.87;99199.45;1728637;83;21150;-60
2021/05/17 03:08:12;;;;;;;;;;;;;;;17.15;69.32;99206.36;1710372;83;21340;-60
2021/05/17 03:10:44;;;;;;;7.58;3.30;;;;;;;17.11;69.97;99217.14;1728689;83;20201;-60
2021/05/17 03:13:17;;;;;;;10.70;3.83;;;;;;;17.08;70.53;99218.23;1728768;81;21189;-60
2021/05/17 03:15:46;;;;;;;7.25;3.47;;;;;;;17.05;71.20;99214.06;1728778;81;21165;-60
2021/05/17 03:18:13;;;;;;;6.62;2.83;;;;;;;17.00;71.71;99209.89;1728681;82;21197;-60
2021/05/17 03:20:41;;;;;;;6.60;3.17;;;;;;;16.96;72.10;99205.16;1728658;83;21352;-59
2021/05/17 03:23:14;;;;;;;6.97;3.10;;;;;;;16.91;72.21;99201.81;1728325;83;21165;-59
2021/05/17 03:25:46;;;;;;;7.45;3.60;;;;;;;16.81;72.49;99192.05;1728389;83;21134;-61
2021/05/17 03:28:15;;;;;;;7.78;3.40;;;;;;;16.73;73.22;99201.69;1728599;81;21265;-60
2021/05/17 03:30:42;;;;;;;6.30;3.15;;;;;;;16.69;73.79;99187.27;1728556;81;21383;-60
2021/05/17 03:33:09;;;;;;;7.33;3.62;;;;;;;16.69;74.30;99185.34;1728573;83;21932;-60
2021/05/17 03:35:37;;;;;;;6.40;3.40;;;;;;;16.68;74.32;99168.45;1728532;81;21280;-61
2021/05/17 03:38:04;;;;;;;6.28;3.77;;;;;;;16.64;74.75;99161.77;1728543;83;21209;-60
2021/05/17 03:40:32;;;;;;;8.38;4.10;;;;;;;16.61;74.75;99149.86;1728726;83;21169;-60
2021/05/17 03:42:59;;;;;;;5.67;3.60;;;;;;;16.62;74.75;99135.48;1728564;83;21408;-60
2021/05/17 03:45:28;;;;;;;7.35;3.80;;;;;;;16.65;74.41;99121.98;1728502;81;21130;-60
2021/05/17 03:47:56;;;;;;;6.47;3.72;;;;;;;16.64;73.83;99102.30;1728584;81;21455;-61
2021/05/17 03:50:24;;;;;;;7.42;3.70;;;;;;;16.59;73.58;99083.48;1728615;83;21165;-60
2021/05/17 03:52:52;;;;;;;6.22;3.77;;;;;;;16.58;73.39;99064.67;1728506;83;21889;-61
2021/05/17 03:55:19;;;;;;;7.35;4.05;;;;;;;16.61;73.24;99082.66;1728513;83;21889;-60
2021/05/17 03:57:47;;;;;;;6.53;4.25;;;;;;;16.63;72.49;99103.41;1728614;81;21410;-60
2021/05/17 04:00:15;;;;;;;6.65;3.75;;;;;;;16.64;71.91;99105.07;1728471;81;21384;-60
2021/05/17 04:02:46;;;;;;;7.17;4.05;;;;;;;16.66;72.28;99108.98;1728506;83;21170;-60
2021/05/17 04:05:34;;;;;;;7.80;3.92;;;;;;;16.70;72.91;99104.03;1728379;82;21276;-60
2021/05/17 04:08:22;;;;;;;7.60;4.25;;;;;;;16.73;72.60;99105.42;1728581;83;21148;-61
2021/05/17 04:13:26;;;;;;;6.35;4.03;;;;;;;16.80;71.83;99092.17;1728459;82;21825;-60
2021/05/17 04:15:54;;;;;;;7.12;3.83;;;;;;;16.82;71.17;99098.27;1728473;83;21169;-61
2021/05/17 04:18:22;;;;;;;6.35;4.08;;;;;;;16.83;70.71;99096.34;1728588;83;21260;-61
2021/05/17 04:20:51;;;;;;;6.15;4.45;;;;;;;16.85;70.69;99088.59;1728689;81;21377;-61
2021/05/17 04:23:22;;;;;;;7.80;4.75;;;;;;;16.86;70.16;99081.97;1728637;81;21420;-59
2021/05/17 04:25:51;;;;;;;5.78;4.72;;;;;;;16.82;69.61;99080.84;1728487;81;21147;-60
2021/05/17 04:28:20;;;;;;;7.05;5.05;;;;;;;16.79;69.82;99071.98;1728608;83;21391;-60
2021/05/17 04:30:47;;;;;;;8.15;4.75;;;;;;;16.78;70.05;99066.17;1728501;83;21170;-60
2021/05/17 04:33:15;;;;;;;11.15;5.60;;;;;;;16.83;69.87;99068.67;1728487;83;21134;-59
2021/05/17 04:35:42;;;;;;;7.37;4.70;;;;;;;16.87;69.80;99083.62;1728414;83;21932;-60
2021/05/17 04:38:09;;;;;;;11.55;5.70;;;;;;;16.89;69.93;99078.66;1728548;82;21174;-60
2021/05/17 04:40:37;;;;;;;10.82;4.72;;;;;;;16.90;70.36;99081.15;1728440;82;21166;-60
2021/05/17 04:43:05;;;;;;;9.33;4.70;;;;;;;16.95;70.18;99097.80;1728559;82;21193;-60
2021/05/17 04:45:34;;;;;;;7.25;4.92;;;;;;;16.97;69.82;99102.52;1728479;83;21142;-60
2021/05/17 04:48:01;;;;;;;8.63;5.70;;;;;;;16.93;69.64;99104.16;1728588;83;21165;-60
2021/05/17 04:50:30;;;;;;;9.85;5.42;;;;;;;16.90;69.49;99121.82;1728512;83;21162;-60
2021/05/17 04:52:58;;;;;;;11.12;5.00;;;;;;;16.88;70.10;99121.25;1728629;83;21462;-60
2021/05/17 04:55:25;;;;;;;8.33;5.15;;;;;;;16.85;70.64;99128.71;1728451;83;21353;-59
2021/05/17 04:57:52;;;;;;;7.80;4.25;;;;;;;16.88;70.87;99121.25;1728571;83;21412;-60
2021/05/17 05:00:20;;;;;;;10.30;6.87;;;;;;;16.90;71.04;99107.44;1728395;81;21420;-59
2021/05/17 05:02:48;;;;;;;8.50;4.65;;;;;;;16.92;70.70;99108.03;1728344;82;21384;-60
2021/05/17 05:05:15;;;;;;;6.47;4.95;;;;;;;16.94;70.34;99107.75;1747468;82;21410;-60
2021/05/17 05:07:44;;;;;;;11.10;5.53;;;;;;;16.94;70.51;99105.82;1752439;82;21439;-59
2021/05/17 05:10:12;;;;;;;9.78;5.62;;;;;;;16.97;70.57;99102.52;1752553;82;21351;-60
2021/05/17 05:12:40;;;;;;;8.35;5.55;;;;;;;17.01;70.88;99103.63;1752319;80;21133;-59
2021/05/17 05:15:09;;;;;;;10.08;6.20;;;;;;;17.04;70.39;99092.02;1752381;80;21141;-60
2021/05/17 05:17:36;;;;;;;8.30;5.50;;;;;;;17.04;70.56;99093.41;1752537;82;21847;-61
2021/05/17 05:20:05;;;;;;;10.85;5.92;;;;;;;17.05;70.62;99090.08;1752523;80;21356;-60
2021/05/17 05:22:32;;;;;;;8.53;5.20;;;;;;;17.05;70.61;99088.15;1752516;81;21129;-62
2021/05/17 05:25:00;;;;;;;7.67;5.47;;;;;;;17.08;70.63;99082.06;1752491;81;21438;-60
2021/05/17 05:27:35;;;;;;;9.20;5.08;;;;;;;17.14;70.60;99077.93;1752372;82;21151;-61
2021/05/17 05:32:40;;;;;;;6.25;4.75;;;;;;;17.17;70.55;99065.77;1752420;80;21805;-60
2021/05/17 05:35:07;;;;;;;7.17;4.90;;;;;;;17.15;69.87;99067.97;1752256;82;21383;-60
2021/05/17 05:37:34;;;;;;;7.17;4.62;;;;;;;17.07;70.14;99057.44;1752572;82;21172;-60
2021/05/17 05:40:05;;;;;;;7.08;4.97;;;;;;;17.07;70.03;99051.90;1752366;80;21817;-60
2021/05/17 05:42:32;;;;;;;9.40;5.30;;;;;;;17.06;70.28;99050.23;1752563;82;21411;-59
2021/05/17 05:45:03;;;;;;;8.53;5.22;;;;;;;17.07;70.43;99036.67;1752625;80;21872;-61
2021/05/17 05:47:29;;;;;;;10.10;5.22;;;;;;;17.14;70.50;99024.80;1752659;82;21164;-60
2021/05/17 05:49:57;;;;;;;10.23;5.65;;;;;;;17.18;70.50;99019.54;1752650;82;21452;-59
2021/05/17 05:52:24;;;;;;;6.00;4.08;;;;;;;17.26;70.50;99010.69;1752506;80;21377;-61
2021/05/17 05:54:52;;;;;;;9.53;4.03;;;;;;;17.33;69.82;99015.41;1752537;80;21414;-58
2021/05/17 05:57:19;;;;;;;5.30;4.05;;;;;;;17.34;69.70;99011.52;1752584;82;21125;-60
2021/05/17 05:59:46;;;;;;;5.25;4.05;;;;;;;17.35;69.37;99012.63;1752480;81;21411;-60
2021/05/17 06:02:14;;;;;;;6.05;4.40;;;;;;;17.31;68.54;98998.23;1752599;82;21406;-60
2021/05/17 06:04:43;;;;;;;7.25;3.75;;;;;;;17.24;68.76;98997.13;1741541;81;21953;-62
2021/05/17 06:07:11;;;;;;;6.10;3.83;;;;;;;17.20;69.03;98997.40;1728555;83;21240;-61
2021/05/17 06:09:38;;;;;;;5.25;3.70;;;;;;;17.17;69.14;98987.43;1728521;83;21236;-61
2021/05/17 06:12:08;;;;;;;5.05;3.47;;;;;;;17.16;69.15;98979.68;1728656;81;21268;-60
2021/05/17 06:14:37;;;;;;;7.78;4.80;;;;;;;17.15;69.35;98974.42;1728633;83;21157;-60
2021/05/17 06:17:05;;;;;;;6.87;4.33;;;;;;;17.11;69.58;98972.20;1728617;81;21194;-64
2021/05/17 06:19:34;;;;;;;6.28;4.05;;;;;;;17.13;69.68;98973.86;1728437;81;21150;-66
2021/05/17 06:22:02;;;;;;;6.78;3.77;;;;;;;17.16;69.87;98969.99;1728429;81;21954;-65
2021/05/17 06:24:30;;;;;;;5.10;3.50;;;;;;;17.20;69.77;98963.35;1728503;81;21160;-65
2021/05/17 06:26:59;;;;;;;7.85;4.28;;;;;;;17.23;69.62;98951.17;1728619;81;21357;-66
2021/05/17 06:29:28;;;;;;;6.78;4.67;;;;;;;17.25;69.59;98943.42;1728642;81;21185;-66
2021/05/17 06:31:55;;;;;;;6.40;4.30;;;;;;;17.26;69.69;98947.02;1728492;81;21508;-64
2021/05/17 06:34:23;;;;;;;8.53;4.12;;;;;;;17.30;70.17;98943.42;1728561;81;21137;-65
2021/05/17 06:36:50;;;;;;;9.03;4.10;;;;;;;17.38;69.92;98935.94;1728534;81;21298;-65
2021/05/17 06:39:18;;;;;;;6.90;4.45;;;;;;;17.44;69.89;98937.59;1728376;83;21313;-63
2021/05/17 06:41:46;;;;;;;8.50;4.85;;;;;;;17.49;69.70;98938.15;1728531;83;21153;-65
2021/05/17 06:44:14;;;;;;;6.28;3.87;;;;;;;17.52;69.24;98940.36;1728481;83;21153;-65
2021/05/17 06:46:42;;;;;;;6.08;3.77;;;;;;;17.54;69.12;98962.23;1728424;81;21169;-66
2021/05/17 06:49:09;;;;;;;6.35;3.77;;;;;;;17.62;69.36;98976.94;1728301;83;21521;-64
2021/05/17 06:51:39;;;;;;;5.15;3.15;;;;;;;17.69;69.01;98983.05;1728460;81;21185;-65
2021/05/17 06:54:09;;;;;;;6.67;3.58;;;;;;;17.75;68.24;98984.70;1728489;81;21165;-64
2021/05/17 06:56:43;;;;;;;8.70;4.10;;;;;;;17.78;67.96;98984.70;1728597;83;21126;-66
2021/05/17 06:59:15;;;;;;;9.38;4.55;;;;;;;17.80;68.09;98979.71;1728491;83;21253;-64
2021/05/17 07:01:39;;;;;;;6.30;3.70;;;;;;;17.89;68.51;98989.12;1728148;81;21451;-65
2021/05/17 07:04:09;;;;;;;7.17;3.95;;;;;;;17.99;68.11;99004.34;1728874;81;21413;-63
2021/05/17 07:06:38;;;;;;;6.25;4.67;;;;;;;18.09;67.96;99004.31;1762752;80;21328;-65
2021/05/17 07:12:17;;;;;;;5.67;3.70;;;;;;;18.24;67.67;99006.25;1761503;80;21140;-61
2021/05/17 07:14:25;;;;;;;8.55;4.05;;;;;;;18.29;66.91;98994.58;1746903;81;21367;-61
2021/05/17 07:16:53;;;;;;;4.35;3.17;;;;;;;18.33;66.36;98991.52;1752401;82;21175;-61
2021/05/17 07:19:22;;;;;;;3.70;3.02;;;;;;;18.36;66.27;98989.56;1771424;80;21420;-61
2021/05/17 07:24:38;;;;;;;6.55;4.40;;;;;;;18.45;66.37;98985.65;1752222;82;21349;-60
2021/05/17 07:27:06;;;;;;;7.10;4.70;;;;;;;18.52;66.44;98988.11;1752585;82;21135;-61
2021/05/17 07:29:36;;;;;;;7.42;4.28;;;;;;;18.59;66.23;98990.85;1753257;80;21212;-61
2021/05/17 07:32:07;;;;;;;5.28;3.37;;;;;;;18.63;65.69;98979.49;1753605;79;21311;-60
2021/05/17 07:34:36;;;;;;;5.72;3.35;;;;;;;18.57;65.29;98979.77;1716981;82;21420;-60
2021/05/17 07:37:05;;;;;;;7.28;4.80;;;;;;;18.54;65.44;98982.55;1715097;83;21180;-60
2021/05/17 07:39:34;;;;;;;7.58;3.98;;;;;;;18.50;65.24;98971.75;1714977;83;21285;-60
2021/05/17 07:42:02;;;;;;;6.28;4.42;;;;;;;18.50;65.54;98982.84;1714965;83;21394;-62
2021/05/17 07:44:30;;;;;;;5.15;3.77;;;;;;;18.53;65.34;98994.77;1715069;83;21888;-60
2021/05/17 07:46:59;;;;;;;5.55;3.50;;;;;;;18.63;65.55;98986.98;1707869;83;21954;-60
2021/05/17 07:49:39;;;;;;;7.00;3.50;;;;;;;18.81;65.60;98977.17;1716923;83;21196;-60
2021/05/17 07:52:06;;;;;;;6.75;3.30;;;;;;;19.04;65.18;98975.67;1711789;83;21353;-61
2021/05/17 07:54:37;;;;;;;4.53;3.17;;;;;;;19.23;64.45;98984.98;1693825;83;21934;-61
2021/05/17 07:57:05;;;;;;;5.90;3.80;;;;;;;19.32;63.72;99002.13;1698783;84;21179;-60
2021/05/17 07:59:35;;;;;;;5.37;3.58;;;;;;;19.39;63.27;99008.73;1698585;84;21429;-60
2021/05/17 08:02:03;;;;;;;5.42;3.42;;;;;;;19.48;62.83;99014.50;1698562;84;21385;-60
2021/05/17 08:04:30;;;;;;;4.12;3.20;;;;;;;19.59;62.29;99003.64;1698162;84;21421;-61
2021/05/17 08:06:58;;;;;;;7.47;3.77;;;;;;;19.70;61.69;98995.48;1739086;82;21251;-60
2021/05/17 08:09:26;;;;;;;5.42;3.25;;;;;;;19.81;61.86;98994.27;1739233;82;21186;-61
2021/05/17 08:11:54;;;;;;;5.87;3.10;;;;;;;19.94;61.60;98999.14;1745110;79;21523;-59
2021/05/17 08:14:21;;;;;;;4.28;3.00;;;;;;;20.04;60.90;99004.33;1702038;84;21155;-61
2021/05/17 08:16:48;;;;;;;5.85;3.27;;;;;;;20.07;60.90;99009.30;1767927;81;21150;-60
2021/05/17 08:19:17;;;;;;;3.80;2.83;;;;;;;20.18;60.91;99016.44;1767920;81;21160;-62
2021/05/17 08:21:48;;;;;;;6.85;2.92;;;;;;;20.26;60.33;99008.84;1768245;81;21381;-61
2021/05/17 08:24:17;;;;;;;4.05;2.72;;;;;;;20.37;60.17;99014.55;1701992;84;21916;-61
2021/05/17 08:26:45;;;;;;;6.10;2.80;;;;;;;20.51;59.34;99011.36;1768184;81;21155;-62
2021/05/17 08:29:12;;;;;;;5.80;3.10;;;;;;;20.65;58.16;99012.02;1701978;84;21430;-65
2021/05/17 08:31:41;;;;;;;3.72;2.67;;;;;;;20.71;58.25;99013.05;1763520;81;21906;-63
2021/05/17 08:34:08;;;;;;;4.80;2.45;;;;;;;20.80;57.71;99018.78;1752116;80;21294;-62
2021/05/17 08:36:36;;;;;;;6.62;2.60;;;;;;;20.89;57.01;99015.06;1759129;81;21213;-65
2021/05/17 08:39:05;;;;;;;5.08;2.70;;;;;;;20.93;56.80;99012.52;1767580;79;21524;-63
2021/05/17 08:41:34;;;;;;;5.00;2.58;;;;;;;20.93;56.11;99025.05;1772137;79;21169;-62
2021/05/17 08:44:04;;;;;;;3.77;2.70;;;;;;;20.93;56.35;99033.39;1698651;82;21188;-62
2021/05/17 08:46:32;;;;;;;8.10;3.00;;;;;;;20.99;55.99;99035.55;1706446;81;21454;-63
2021/05/17 08:48:59;;;;;;;4.58;2.80;;;;;;;21.08;56.23;99022.05;1713910;82;21743;-60
2021/05/17 08:51:33;;;;;;;5.87;2.92;;;;;;;21.16;55.84;99022.76;1703610;84;21194;-63
2021/05/17 08:54:03;;;;;;;6.25;2.60;;;;;;;21.28;55.61;99029.87;1769867;80;21155;-62
2021/05/17 08:56:35;;;;;;;5.40;2.80;;;;;;;21.43;54.96;99048.58;1769867;81;21195;-62
2021/05/17 08:59:04;;;;;;;4.08;2.50;;;;;;;21.54;54.52;99053.45;1769589;80;21366;-61
2021/05/17 09:01:32;;;;;;;5.95;2.77;;;;;;;21.56;54.06;99041.44;1759115;79;21115;-61
2021/05/17 09:04:04;;;;;;;7.35;4.00;;;;;;;21.58;55.27;99036.39;1701804;84;21421;-60
2021/05/17 09:06:52;;;;;;;3.10;2.25;;;;;;;21.69;54.17;99032.87;1748185;81;21386;-62
2021/05/17 09:09:35;;;;;;;2.75;2.30;;;;;;;21.71;53.52;99031.44;1738661;81;21273;-61
2021/05/17 09:12:06;;;;;;;4.67;2.65;;;;;;;21.68;53.08;99036.78;1739193;82;21219;-60
2021/05/17 09:14:35;;;;;;;4.40;3.37;;;;;;;21.60;53.20;99044.45;1739695;81;21361;-62
2021/05/17 09:17:08;;;;;;;4.85;2.95;;;;;;;21.57;53.40;99059.81;1739114;81;21159;-64
2021/05/17 09:19:44;;;;;;;3.30;2.65;;;;;;;21.58;53.70;99067.05;1753819;81;21242;-62
2021/05/17 09:22:18;;;;;;;5.28;2.67;;;;;;;21.56;53.56;99058.16;1769311;79;21182;-62
2021/05/17 09:25:01;;;;;;;3.77;2.60;;;;;;;21.45;53.40;99053.84;1769552;80;21883;-64
2021/05/17 09:27:30;;;;;;;4.58;2.60;;;;;;;21.33;54.25;99050.69;1769160;80;21143;-66
2021/05/17 09:30:01;;;;;;;3.30;2.90;;;;;;;21.29;54.28;99059.38;1769974;79;21386;-68
2021/05/17 09:32:34;;;;;;;5.72;2.60;;;;;;;21.18;54.89;99065.07;1759307;80;21862;-68
2021/05/17 09:35:19;;;;;;;4.72;2.87;;;;;;;21.11;54.72;99065.17;1702050;84;21767;-63
2021/05/17 09:37:49;;;;;;;3.77;2.67;;;;;;;21.01;55.37;99060.57;1768184;81;21143;-67
2021/05/17 09:40:24;;;;;;;6.53;3.02;;;;;;;21.00;55.55;99068.66;1694489;84;21874;-67
2021/05/17 09:43:09;;;;;;;5.25;2.83;;;;;;;21.00;55.40;99068.66;1767716;81;21450;-61
2021/05/17 09:45:43;;;;;;;4.40;2.62;;;;;;;21.01;55.43;99067.53;1774289;80;21816;-65
2021/05/17 09:48:13;;;;;;;4.45;2.70;;;;;;;21.00;55.48;99081.20;1774897;79;21455;-65
2021/05/17 09:51:03;;;;;;;3.92;2.87;;;;;;;20.96;55.86;99091.27;1775190;80;21344;-63
2021/05/17 09:53:40;;;;;;;8.18;3.87;;;;;;;20.94;55.70;99094.92;1760367;80;21807;-61
2021/05/17 09:56:20;;;;;;;4.72;3.17;;;;;;;20.87;55.91;99107.81;1754239;81;21146;-62
2021/05/17 09:58:57;;;;;;;4.87;3.30;;;;;;;20.79;57.34;99118.73;1769358;81;21329;-62
2021/05/17 10:01:29;;;;;;;21.02;11.93;;;;;;;20.66;58.23;99122.23;1769258;81;21476;-61
2021/05/17 10:04:05;;;;;;;11.22;5.58;;;;;;;20.55;59.36;99115.38;1762663;80;22102;-61
2021/05/17 10:06:33;;;;;;;8.15;4.20;;;;;;;20.43;60.03;99107.17;1761300;80;21428;-63
2021/05/17 10:09:00;;;;;;;7.50;3.47;;;;;;;20.31;61.09;99094.19;1714811;83;21921;-60
2021/05/17 10:11:28;;;;;;;3.80;2.87;;;;;;;20.22;61.83;99082.30;1713631;82;21173;-61
2021/05/17 10:13:56;;;;;;;5.35;2.65;;;;;;;20.09;62.12;99045.98;1700703;83;21353;-62
2021/05/17 10:16:24;;;;;;;6.67;3.00;;;;;;;19.93;62.95;99002.20;1698325;84;21374;-62
2021/05/17 10:18:51;;;;;;;5.15;2.87;;;;;;;19.73;63.86;98958.77;1698503;84;21192;-63
2021/05/17 10:21:23;;;;;;;5.22;2.47;;;;;;;19.55;64.64;98909.48;1698699;83;21328;-64
2021/05/17 10:23:54;;;;;;;11.35;2.95;;;;;;;19.33;65.46;98884.36;1704209;83;21164;-63
2021/05/17 10:26:25;;;;;;;8.05;3.37;;;;;;;19.14;66.17;98863.98;1706437;83;21261;-63
2021/05/17 10:28:57;;;;;;;7.12;3.33;;;;;;;18.96;67.30;98859.98;1717706;82;21425;-61
2021/05/17 10:31:25;;;;;;;5.53;2.95;;;;;;;18.83;67.96;98858.39;1715753;83;21467;-62
2021/05/17 10:34:03;;;;;;;6.95;3.30;;;;;;;18.71;68.23;98859.31;1699337;83;21207;-63
2021/05/17 10:36:57;;;;;;;7.40;2.95;;;;;;;18.65;68.61;98851.03;1697485;83;21875;-62
2021/05/17 10:39:37;;;;;;;5.42;3.30;;;;;;;18.66;69.09;98824.95;1727317;83;21166;-65
2021/05/17 10:42:39;;;;;;;5.00;3.12;;;;;;;18.64;69.47;98849.93;1726507;81;21321;-62
2021/05/17 10:48:25;;;;;;;5.95;3.37;;;;;;;18.63;69.38;98877.41;1745973;82;21376;-61
2021/05/17 10:51:18;;;;;;;6.22;3.40;;;;;;;18.70;70.24;98893.17;1707821;83;22087;-61
2021/05/17 10:53:54;;;;;;;6.08;3.70;;;;;;;18.84;70.54;98904.45;1700280;83;22121;-61
2021/05/17 11:02:42;;;;;;;6.00;3.10;;;;;;;19.22;70.75;98891.13;1713720;81;21169;-61
2021/05/17 11:05:20;;;;;;;9.43;3.50;;;;;;;19.42;70.07;98885.11;1714145;83;21275;-61
2021/05/17 11:08:01;;;;;;;4.37;3.00;;;;;;;19.51;69.36;98886.98;1710724;83;21234;-61
2021/05/17 11:10:46;;;;;;;5.22;3.58;;;;;;;19.64;69.75;98884.11;1775752;80;21422;-62
2021/05/17 11:13:23;;;;;;;6.75;3.75;;;;;;;19.79;69.21;98894.23;1774616;79;21884;-62
2021/05/17 11:16:06;;;;;;;5.12;3.47;;;;;;;19.89;68.24;98890.77;1770569;80;21149;-61
2021/05/17 11:18:43;;;;;;;4.28;3.00;;;;;;;19.98;67.76;98892.91;1777795;79;21261;-61
2021/05/17 11:21:27;;;;;;;3.77;3.00;;;;;;;20.06;67.19;98904.20;1769729;80;21874;-62
2021/05/17 11:23:59;;;;;;;4.55;3.00;;;;;;;20.12;66.34;98913.30;1770699;80;21178;-61
2021/05/17 11:27:02;;;;;;;5.97;3.47;;;;;;;20.12;66.37;98907.74;1768674;80;21190;-64
2021/05/17 11:29:36;;;;;;;5.92;3.35;;;;;;;20.07;65.72;98912.80;1750429;80;21169;-62
2021/05/17 11:32:13;;;;;;;7.03;3.08;;;;;;;20.02;65.91;98918.98;1768770;80;21158;-63
2021/05/17 11:34:58;;;;;;;3.30;2.50;;;;;;;19.99;65.12;98914.02;1777301;79;21265;-63
2021/05/17 11:37:25;;;;;;;4.80;2.83;;;;;;;19.95;65.54;98920.17;1758533;80;21182;-65
2021/05/17 11:39:54;;;;;;;4.37;3.00;;;;;;;19.97;65.56;98921.83;1755292;80;21202;-64
2021/05/17 11:42:22;;;;;;;4.97;2.95;;;;;;;20.02;65.55;98926.77;1747073;80;21163;-64
2021/05/17 11:44:55;;;;;;;5.17;2.95;;;;;;;19.98;64.91;98931.83;1746754;82;21403;-63
2021/05/17 11:47:27;;;;;;;6.20;2.90;;;;;;;19.85;65.01;98936.96;1746850;82;21318;-63
2021/05/17 11:49:56;;;;;;;3.92;2.80;;;;;;;19.79;64.93;98935.92;1746967;80;21130;-64
2021/05/17 11:52:25;;;;;;;5.40;2.90;;;;;;;19.72;64.46;98933.48;1770245;80;21174;-64
2021/05/17 11:55:01;;;;;;;3.83;3.08;;;;;;;19.65;64.91;98923.28;1766780;80;21260;-63
2021/05/17 11:57:33;;;;;;;3.92;2.85;;;;;;;19.57;64.77;98935.03;1746832;81;21547;-63
2021/05/17 12:00:12;;;;;;;5.67;3.10;;;;;;;19.47;64.92;98936.45;1744971;80;21847;-63
2021/05/17 12:02:47;;;;;;;5.33;3.30;;;;;;;19.45;65.19;98944.25;1746939;82;21378;-64
2021/05/17 12:05:15;;;;;;;4.35;2.50;;;;;;;19.46;65.71;98933.41;1765705;79;21142;-62
2021/05/17 12:07:49;;;;;;;5.20;3.00;;;;;;;19.46;65.36;98941.73;1763978;81;21396;-62
2021/05/17 12:10:17;;;;;;;5.30;3.27;;;;;;;19.46;65.64;98946.73;1765565;80;22007;-62
2021/05/17 12:12:45;;;;;;;5.75;3.70;;;;;;;19.48;65.74;98947.83;1765526;80;21359;-63